Terminal Aerodrome Forecast
Issued by NWS Portland, ME

Home | Current Version | Previous Version | Text Only | Print | Product List | Glossary On
Versions: 1 2 3 4 5 6 7 8 9 10 11 12 13 14 15 16 17 18 19 20
000
FTUS41 KGYX 260541
TAFCON
TAF
KCON 260541Z 2606/2706 18006KT P6SM BKN100
      TEMPO 2606/2608 -SHRA
     FM261400 23009G18KT P6SM BKN200
     FM262300 20004KT P6SM SCT200=

USA.gov is the U.S. government's official web portal to all federal, state and local government web resources and services.